sensor_id;sensor_type;location;lat;lon;timestamp;pressure;altitude;pressure_sealevel;temperature;humidity
12801;BME280;6464;42.494;27.470;2023-05-12T00:00:09;101015.00;;;10.62;100.00
12801;BME280;6464;42.494;27.470;2023-05-12T00:02:36;100852.56;;;9.88;100.00
12801;BME280;6464;42.494;27.470;2023-05-12T00:05:04;100971.97;;;10.60;100.00
12801;BME280;6464;42.494;27.470;2023-05-12T00:07:31;100935.66;;;10.14;100.00
12801;BME280;6464;42.494;27.470;2023-05-12T00:09:58;101040.13;;;10.89;100.00
12801;BME280;6464;42.494;27.470;2023-05-12T00:12:26;101078.53;;;11.10;100.00
12801;BME280;6464;42.494;27.470;2023-05-12T00:14:54;101096.13;;;11.09;100.00
12801;BME280;6464;42.494;27.470;2023-05-12T00:17:21;100963.38;;;10.44;100.00
12801;BME280;6464;42.494;27.470;2023-05-12T00:19:48;100865.97;;;9.67;100.00
12801;BME280;6464;42.494;27.470;2023-05-12T00:22:15;101016.63;;;10.72;100.00
12801;BME280;6464;42.494;27.470;2023-05-12T00:24:43;101042.06;;;10.76;100.00
12801;BME280;6464;42.494;27.470;2023-05-12T00:27:10;100906.78;;;10.04;100.00
12801;BME280;6464;42.494;27.470;2023-05-12T00:29:38;101010.94;;;10.38;100.00
12801;BME280;6464;42.494;27.470;2023-05-12T00:32:06;100903.69;;;9.72;100.00
12801;BME280;6464;42.494;27.470;2023-05-12T00:34:34;101123.47;;;11.03;100.00
12801;BME280;6464;42.494;27.470;2023-05-12T00:37:01;101112.91;;;11.05;100.00
12801;BME280;6464;42.494;27.470;2023-05-12T00:39:28;101009.84;;;10.52;100.00
12801;BME280;6464;42.494;27.470;2023-05-12T00:41:56;101094.44;;;11.03;100.00
12801;BME280;6464;42.494;27.470;2023-05-12T00:44:23;100859.94;;;9.60;100.00
12801;BME280;6464;42.494;27.470;2023-05-12T00:46:51;100975.91;;;10.28;100.00
12801;BME280;6464;42.494;27.470;2023-05-12T00:49:21;101119.19;;;10.95;100.00
12801;BME280;6464;42.494;27.470;2023-05-12T00:51:48;100997.06;;;10.19;100.00
12801;BME280;6464;42.494;27.470;2023-05-12T00:54:16;100907.00;;;9.86;100.00
12801;BME280;6464;42.494;27.470;2023-05-12T00:56:43;100912.13;;;9.98;100.00
12801;BME280;6464;42.494;27.470;2023-05-12T00:59:10;101040.47;;;10.64;100.00
12801;BME280;6464;42.494;27.470;2023-05-12T04:00:35;101055.56;;;11.67;100.00
12801;BME280;6464;42.494;27.470;2023-05-12T04:03:02;101108.06;;;11.90;100.00
12801;BME280;6464;42.494;27.470;2023-05-12T04:05:29;101027.78;;;11.45;100.00
12801;BME280;6464;42.494;27.470;2023-05-12T04:07:56;100963.25;;;11.10;100.00
12801;BME280;6464;42.494;27.470;2023-05-12T04:10:23;100998.13;;;11.29;100.00
12801;BME280;6464;42.494;27.470;2023-05-12T04:12:51;100936.06;;;11.05;100.00
12801;BME280;6464;42.494;27.470;2023-05-12T04:15:19;100951.97;;;11.00;100.00
12801;BME280;6464;42.494;27.470;2023-05-12T04:17:47;101122.31;;;12.29;100.00
12801;BME280;6464;42.494;27.470;2023-05-12T04:20:15;101138.09;;;12.34;100.00
12801;BME280;6464;42.494;27.470;2023-05-12T04:22:42;100972.31;;;11.46;100.00
12801;BME280;6464;42.494;27.470;2023-05-12T04:25:10;101027.09;;;11.86;100.00
12801;BME280;6464;42.494;27.470;2023-05-12T04:27:36;100936.34;;;11.39;100.00
12801;BME280;6464;42.494;27.470;2023-05-12T04:30:05;101053.06;;;12.11;100.00
12801;BME280;6464;42.494;27.470;2023-05-12T04:32:32;100943.28;;;11.46;100.00
12801;BME280;6464;42.494;27.470;2023-05-12T04:35:00;101083.03;;;12.54;100.00
12801;BME280;6464;42.494;27.470;2023-05-12T04:37:27;101083.34;;;12.38;100.00
12801;BME280;6464;42.494;27.470;2023-05-12T04:39:54;101158.94;;;12.94;100.00
12801;BME280;6464;42.494;27.470;2023-05-12T04:42:21;101085.38;;;12.67;100.00
12801;BME280;6464;42.494;27.470;2023-05-12T04:44:49;101046.03;;;12.51;100.00
12801;BME280;6464;42.494;27.470;2023-05-12T04:47:16;101161.97;;;13.18;100.00
12801;BME280;6464;42.494;27.470;2023-05-12T04:49:43;101025.16;;;12.38;100.00
12801;BME280;6464;42.494;27.470;2023-05-12T04:52:11;101171.47;;;13.28;100.00
12801;BME280;6464;42.494;27.470;2023-05-12T04:54:38;101052.78;;;12.66;100.00
12801;BME280;6464;42.494;27.470;2023-05-12T04:57:05;101090.44;;;12.79;100.00
12801;BME280;6464;42.494;27.470;2023-05-12T04:59:32;101176.41;;;13.45;100.00
12801;BME280;6464;42.494;27.470;2023-05-12T05:02:00;101182.56;;;13.45;100.00
12801;BME280;6464;42.494;27.470;2023-05-12T05:04:27;101188.66;;;13.49;100.00
12801;BME280;6464;42.494;27.470;2023-05-12T05:06:54;101093.41;;;13.05;100.00
12801;BME280;6464;42.494;27.470;2023-05-12T05:09:23;100987.97;;;12.45;100.00
12801;BME280;6464;42.494;27.470;2023-05-12T05:11:50;101000.66;;;12.70;100.00
12801;BME280;6464;42.494;27.470;2023-05-12T05:14:17;101130.13;;;13.58;100.00
12801;BME280;6464;42.494;27.470;2023-05-12T05:16:44;101109.34;;;13.41;100.00
12801;BME280;6464;42.494;27.470;2023-05-12T05:19:11;101189.19;;;14.00;100.00
12801;BME280;6464;42.494;27.470;2023-05-12T05:21:38;101157.41;;;13.99;100.00
12801;BME280;6464;42.494;27.470;2023-05-12T05:24:06;101202.94;;;14.16;100.00
12801;BME280;6464;42.494;27.470;2023-05-12T05:26:34;101194.78;;;14.24;100.00
12801;BME280;6464;42.494;27.470;2023-05-12T05:29:01;101161.78;;;14.34;100.00
12801;BME280;6464;42.494;27.470;2023-05-12T05:31:31;101084.94;;;13.98;100.00
12801;BME280;6464;42.494;27.470;2023-05-12T05:33:58;101138.19;;;14.57;100.00
12801;BME280;6464;42.494;27.470;2023-05-12T05:36:25;101148.53;;;14.67;100.00
12801;BME280;6464;42.494;27.470;2023-05-12T05:38:53;101114.38;;;14.54;100.00
12801;BME280;6464;42.494;27.470;2023-05-12T05:41:20;101100.19;;;14.55;100.00
12801;BME280;6464;42.494;27.470;2023-05-12T05:43:49;101201.78;;;15.51;100.00
12801;BME280;6464;42.494;27.470;2023-05-12T05:46:16;101081.97;;;15.02;100.00
12801;BME280;6464;42.494;27.470;2023-05-12T05:48:43;101125.78;;;15.17;100.00
12801;BME280;6464;42.494;27.470;2023-05-12T05:51:10;101138.06;;;15.49;100.00
12801;BME280;6464;42.494;27.470;2023-05-12T05:53:37;101143.22;;;15.54;100.00
12801;BME280;6464;42.494;27.470;2023-05-12T05:56:04;101162.63;;;15.57;100.00
12801;BME280;6464;42.494;27.470;2023-05-12T05:58:31;101127.16;;;15.57;100.00
12801;BME280;6464;42.494;27.470;2023-05-12T06:01:00;101127.81;;;15.65;100.00
12801;BME280;6464;42.494;27.470;2023-05-12T06:03:27;101114.94;;;15.79;100.00
12801;BME280;6464;42.494;27.470;2023-05-12T06:05:54;101099.84;;;15.80;100.00
12801;BME280;6464;42.494;27.470;2023-05-12T06:08:21;101105.25;;;16.03;100.00
12801;BME280;6464;42.494;27.470;2023-05-12T06:10:48;101121.50;;;16.21;100.00
12801;BME280;6464;42.494;27.470;2023-05-12T06:13:15;101127.69;;;15.96;100.00
12801;BME280;6464;42.494;27.470;2023-05-12T06:15:43;101224.25;;;16.76;100.00
12801;BME280;6464;42.494;27.470;2023-05-12T06:18:11;101150.50;;;16.28;100.00
12801;BME280;6464;42.494;27.470;2023-05-12T06:20:38;101158.53;;;16.27;100.00
12801;BME280;6464;42.494;27.470;2023-05-12T06:23:05;101126.34;;;16.34;100.00
12801;BME280;6464;42.494;27.470;2023-05-12T06:25:32;101246.13;;;17.09;100.00
12801;BME280;6464;42.494;27.470;2023-05-12T06:27:59;101237.28;;;17.09;100.00
12801;BME280;6464;42.494;27.470;2023-05-12T06:30:26;101183.59;;;16.46;100.00
12801;BME280;6464;42.494;27.470;2023-05-12T06:32:53;101167.13;;;16.35;100.00
12801;BME280;6464;42.494;27.470;2023-05-12T06:35:25;101270.19;;;16.83;100.00
12801;BME280;6464;42.494;27.470;2023-05-12T06:37:52;101224.44;;;16.45;100.00
12801;BME280;6464;42.494;27.470;2023-05-12T06:40:20;101239.56;;;16.69;100.00
12801;BME280;6464;42.494;27.470;2023-05-12T06:42:47;101098.13;;;15.79;100.00
12801;BME280;6464;42.494;27.470;2023-05-12T06:45:14;101272.88;;;17.06;100.00
12801;BME280;6464;42.494;27.470;2023-05-12T06:47:42;101215.75;;;16.40;100.00
12801;BME280;6464;42.494;27.470;2023-05-12T06:50:09;101288.19;;;17.25;100.00
12801;BME280;6464;42.494;27.470;2023-05-12T06:52:37;101192.81;;;16.86;100.00
12801;BME280;6464;42.494;27.470;2023-05-12T06:55:04;101218.69;;;17.07;100.00
12801;BME280;6464;42.494;27.470;2023-05-12T06:57:32;101297.59;;;17.58;100.00
12801;BME280;6464;42.494;27.470;2023-05-12T06:59:59;101220.06;;;16.94;100.00
12801;BME280;6464;42.494;27.470;2023-05-12T07:02:27;101248.91;;;17.06;100.00
12801;BME280;6464;42.494;27.470;2023-05-12T07:04:54;101250.78;;;17.28;100.00
12801;BME280;6464;42.494;27.470;2023-05-12T07:07:21;101243.06;;;17.20;100.00
12801;BME280;6464;42.494;27.470;2023-05-12T07:09:49;101246.41;;;17.25;100.00
12801;BME280;6464;42.494;27.470;2023-05-12T07:12:16;101347.28;;;18.08;100.00
12801;BME280;6464;42.494;27.470;2023-05-12T07:14:43;101247.00;;;17.57;100.00
12801;BME280;6464;42.494;27.470;2023-05-12T07:17:10;101340.63;;;17.96;100.00
12801;BME280;6464;42.494;27.470;2023-05-12T07:19:37;101355.25;;;17.62;100.00
12801;BME280;6464;42.494;27.470;2023-05-12T07:22:04;101476.34;;;18.07;100.00
12801;BME280;6464;42.494;27.470;2023-05-12T07:24:31;101435.75;;;17.48;100.00
12801;BME280;6464;42.494;27.470;2023-05-12T07:27:00;101538.78;;;18.03;100.00
12801;BME280;6464;42.494;27.470;2023-05-12T07:29:27;101645.00;;;18.18;100.00
12801;BME280;6464;42.494;27.470;2023-05-12T07:31:54;102013.91;;;18.03;100.00
12801;BME280;6464;42.494;27.470;2023-05-12T07:34:21;102106.91;;;18.19;100.00
12801;BME280;6464;42.494;27.470;2023-05-12T07:36:47;102125.66;;;17.84;100.00
12801;BME280;6464;42.494;27.470;2023-05-12T07:39:15;102085.34;;;17.60;100.00
12801;BME280;6464;42.494;27.470;2023-05-12T07:41:48;102185.63;;;18.03;100.00
12801;BME280;6464;42.494;27.470;2023-05-12T07:44:17;102051.25;;;17.71;100.00
12801;BME280;6464;42.494;27.470;2023-05-12T07:46:44;102165.88;;;18.43;100.00
12801;BME280;6464;42.494;27.470;2023-05-12T07:49:11;102215.66;;;18.47;100.00
12801;BME280;6464;42.494;27.470;2023-05-12T07:51:38;102038.22;;;17.59;100.00
12801;BME280;6464;42.494;27.470;2023-05-12T07:54:05;102143.50;;;18.47;100.00
12801;BME280;6464;42.494;27.470;2023-05-12T07:56:33;102239.38;;;18.90;100.00
12801;BME280;6464;42.494;27.470;2023-05-12T07:59:00;102206.69;;;18.81;100.00
12801;BME280;6464;42.494;27.470;2023-05-12T08:01:28;102245.59;;;19.50;100.00
12801;BME280;6464;42.494;27.470;2023-05-12T08:03:55;102251.72;;;19.25;100.00
12801;BME280;6464;42.494;27.470;2023-05-12T08:06:22;102300.66;;;19.87;100.00
12801;BME280;6464;42.494;27.470;2023-05-12T08:08:49;102221.72;;;19.14;100.00
12801;BME280;6464;42.494;27.470;2023-05-12T08:11:16;102093.44;;;18.22;100.00
12801;BME280;6464;42.494;27.470;2023-05-12T08:13:44;102122.97;;;18.49;100.00
12801;BME280;6464;42.494;27.470;2023-05-12T08:16:11;102152.63;;;19.00;100.00
12801;BME280;6464;42.494;27.470;2023-05-12T08:18:40;102193.72;;;19.26;100.00
12801;BME280;6464;42.494;27.470;2023-05-12T08:21:07;102269.00;;;19.73;100.00
12801;BME280;6464;42.494;27.470;2023-05-12T08:23:34;102282.50;;;19.96;100.00
12801;BME280;6464;42.494;27.470;2023-05-12T08:26:02;102214.25;;;19.82;100.00
12801;BME280;6464;42.494;27.470;2023-05-12T08:28:29;102226.03;;;19.48;100.00
12801;BME280;6464;42.494;27.470;2023-05-12T08:30:56;102235.25;;;19.67;100.00
12801;BME280;6464;42.494;27.470;2023-05-12T08:33:24;102090.25;;;18.41;100.00
12801;BME280;6464;42.494;27.470;2023-05-12T08:35:52;102225.81;;;19.84;100.00
12801;BME280;6464;42.494;27.470;2023-05-12T08:38:19;102259.34;;;19.38;100.00
12801;BME280;6464;42.494;27.470;2023-05-12T08:40:54;102150.78;;;18.73;100.00
12801;BME280;6464;42.494;27.470;2023-05-12T08:43:24;102219.03;;;19.44;100.00
12801;BME280;6464;42.494;27.470;2023-05-12T08:45:51;102159.38;;;19.12;100.00
12801;BME280;6464;42.494;27.470;2023-05-12T08:48:23;102261.47;;;19.56;100.00
12801;BME280;6464;42.494;27.470;2023-05-12T08:50:53;102204.13;;;19.07;100.00
12801;BME280;6464;42.494;27.470;2023-05-12T08:53:20;102084.63;;;18.50;100.00
12801;BME280;6464;42.494;27.470;2023-05-12T08:55:48;102166.34;;;19.46;100.00
12801;BME280;6464;42.494;27.470;2023-05-12T08:58:16;102244.22;;;19.37;100.00
12801;BME280;6464;42.494;27.470;2023-05-12T09:00:44;102030.28;;;18.21;100.00
12801;BME280;6464;42.494;27.470;2023-05-12T09:03:15;102149.13;;;18.98;100.00
12801;BME280;6464;42.494;27.470;2023-05-12T09:05:44;102034.56;;;18.27;100.00
12801;BME280;6464;42.494;27.470;2023-05-12T09:08:13;102192.69;;;19.02;100.00
12801;BME280;6464;42.494;27.470;2023-05-12T09:10:40;102234.22;;;19.71;100.00
12801;BME280;6464;42.494;27.470;2023-05-12T09:13:13;102233.41;;;19.96;100.00
12801;BME280;6464;42.494;27.470;2023-05-12T09:15:46;102206.94;;;20.13;100.00
12801;BME280;6464;42.494;27.470;2023-05-12T09:18:17;102266.44;;;20.49;100.00
12801;BME280;6464;42.494;27.470;2023-05-12T09:20:44;102230.69;;;20.50;100.00
12801;BME280;6464;42.494;27.470;2023-05-12T09:23:18;102212.38;;;20.37;100.00
12801;BME280;6464;42.494;27.470;2023-05-12T09:25:45;102239.13;;;20.63;100.00
12801;BME280;6464;42.494;27.470;2023-05-12T09:28:13;102237.28;;;20.65;100.00
12801;BME280;6464;42.494;27.470;2023-05-12T09:30:40;102279.28;;;21.38;100.00
12801;BME280;6464;42.494;27.470;2023-05-12T09:33:08;102268.53;;;22.04;100.00
12801;BME280;6464;42.494;27.470;2023-05-12T09:35:39;102276.13;;;22.37;100.00
12801;BME280;6464;42.494;27.470;2023-05-12T09:38:08;102246.94;;;21.85;100.00
12801;BME280;6464;42.494;27.470;2023-05-12T09:40:37;102341.03;;;22.27;100.00
12801;BME280;6464;42.494;27.470;2023-05-12T09:43:05;102286.34;;;21.85;100.00
12801;BME280;6464;42.494;27.470;2023-05-12T09:45:33;102208.84;;;20.85;100.00
12801;BME280;6464;42.494;27.470;2023-05-12T09:48:08;102285.03;;;20.54;100.00
12801;BME280;6464;42.494;27.470;2023-05-12T09:50:42;102250.34;;;21.21;100.00
12801;BME280;6464;42.494;27.470;2023-05-12T09:53:10;102264.59;;;21.23;100.00
12801;BME280;6464;42.494;27.470;2023-05-12T09:55:38;102290.53;;;22.14;100.00
12801;BME280;6464;42.494;27.470;2023-05-12T09:58:09;102253.63;;;21.53;100.00
12801;BME280;6464;42.494;27.470;2023-05-12T10:00:36;102349.31;;;22.43;100.00
12801;BME280;6464;42.494;27.470;2023-05-12T10:03:09;102337.59;;;22.66;100.00
12801;BME280;6464;42.494;27.470;2023-05-12T10:05:41;102366.53;;;23.22;100.00
12801;BME280;6464;42.494;27.470;2023-05-12T10:08:10;102310.97;;;23.01;100.00
12801;BME280;6464;42.494;27.470;2023-05-12T10:10:40;102284.34;;;22.54;100.00
12801;BME280;6464;42.494;27.470;2023-05-12T10:13:07;102351.53;;;22.33;100.00
12801;BME280;6464;42.494;27.470;2023-05-12T10:15:39;102317.41;;;21.92;100.00
12801;BME280;6464;42.494;27.470;2023-05-12T10:18:07;102247.66;;;20.98;100.00
12801;BME280;6464;42.494;27.470;2023-05-12T10:20:35;102228.56;;;21.30;100.00
12801;BME280;6464;42.494;27.470;2023-05-12T10:23:03;102267.28;;;22.35;100.00
12801;BME280;6464;42.494;27.470;2023-05-12T10:25:31;102349.94;;;22.50;100.00
12801;BME280;6464;42.494;27.470;2023-05-12T10:28:00;102296.94;;;22.11;100.00
12801;BME280;6464;42.494;27.470;2023-05-12T10:30:28;102359.31;;;22.82;100.00
12801;BME280;6464;42.494;27.470;2023-05-12T10:32:56;102314.16;;;22.90;100.00
12801;BME280;6464;42.494;27.470;2023-05-12T10:35:31;102271.13;;;22.49;100.00
12801;BME280;6464;42.494;27.470;2023-05-12T10:38:00;102339.44;;;23.06;100.00
12801;BME280;6464;42.494;27.470;2023-05-12T10:40:28;102377.63;;;23.15;100.00
12801;BME280;6464;42.494;27.470;2023-05-12T10:42:57;102375.34;;;23.26;100.00
12801;BME280;6464;42.494;27.470;2023-05-12T10:45:27;102407.56;;;24.23;100.00
12801;BME280;6464;42.494;27.470;2023-05-12T10:48:03;102378.25;;;23.21;100.00
12801;BME280;6464;42.494;27.470;2023-05-12T10:50:31;102377.81;;;24.61;100.00
12801;BME280;6464;42.494;27.470;2023-05-12T10:52:59;102370.66;;;23.88;100.00
12801;BME280;6464;42.494;27.470;2023-05-12T10:55:31;102351.13;;;23.05;100.00
12801;BME280;6464;42.494;27.470;2023-05-12T10:58:08;102330.28;;;23.29;100.00
12801;BME280;6464;42.494;27.470;2023-05-12T11:00:49;102364.56;;;23.45;100.00
12801;BME280;6464;42.494;27.470;2023-05-12T11:03:22;102405.34;;;23.95;100.00
12801;BME280;6464;42.494;27.470;2023-05-12T11:05:57;102437.16;;;24.44;100.00
12801;BME280;6464;42.494;27.470;2023-05-12T11:08:24;102427.91;;;25.36;100.00
12801;BME280;6464;42.494;27.470;2023-05-12T11:10:52;102463.16;;;26.78;100.00
12801;BME280;6464;42.494;27.470;2023-05-12T11:13:20;102490.22;;;26.94;100.00
12801;BME280;6464;42.494;27.470;2023-05-12T11:15:49;102467.38;;;26.68;100.00
12801;BME280;6464;42.494;27.470;2023-05-12T11:18:19;102494.16;;;27.63;100.00
12801;BME280;6464;42.494;27.470;2023-05-12T11:20:46;102491.00;;;26.96;100.00
12801;BME280;6464;42.494;27.470;2023-05-12T11:23:23;102478.19;;;26.68;100.00
12801;BME280;6464;42.494;27.470;2023-05-12T11:25:51;102496.06;;;27.32;100.00
12801;BME280;6464;42.494;27.470;2023-05-12T11:28:18;102502.06;;;27.37;100.00
12801;BME280;6464;42.494;27.470;2023-05-12T11:30:50;102495.88;;;28.50;100.00
12801;BME280;6464;42.494;27.470;2023-05-12T11:33:21;102523.66;;;28.80;100.00
12801;BME280;6464;42.494;27.470;2023-05-12T11:35:48;102506.63;;;28.51;100.00
12801;BME280;6464;42.494;27.470;2023-05-12T11:38:15;102513.31;;;29.27;100.00
12801;BME280;6464;42.494;27.470;2023-05-12T11:40:43;102539.78;;;29.63;100.00
12801;BME280;6464;42.494;27.470;2023-05-12T11:43:11;102512.59;;;29.88;100.00
12801;BME280;6464;42.494;27.470;2023-05-12T11:45:39;102562.56;;;31.10;100.00
12801;BME280;6464;42.494;27.470;2023-05-12T11:48:11;102540.22;;;29.57;100.00
12801;BME280;6464;42.494;27.470;2023-05-12T11:50:39;102529.81;;;30.38;100.00
12801;BME280;6464;42.494;27.470;2023-05-12T11:53:09;102571.94;;;31.30;100.00
12801;BME280;6464;42.494;27.470;2023-05-12T11:55:36;102567.50;;;31.29;100.00
12801;BME280;6464;42.494;27.470;2023-05-12T11:58:03;102492.47;;;30.88;100.00
12801;BME280;6464;42.494;27.470;2023-05-12T12:00:32;102575.63;;;31.64;100.00
12801;BME280;6464;42.494;27.470;2023-05-12T12:03:10;102594.06;;;32.18;100.00
12801;BME280;6464;42.494;27.470;2023-05-12T12:05:37;102575.00;;;31.50;99.26
12801;BME280;6464;42.494;27.470;2023-05-12T12:08:06;102531.94;;;29.71;100.00
12801;BME280;6464;42.494;27.470;2023-05-12T12:10:34;102571.97;;;32.33;100.00
12801;BME280;6464;42.494;27.470;2023-05-12T12:13:01;102581.38;;;31.72;100.00
12801;BME280;6464;42.494;27.470;2023-05-12T12:15:28;102532.81;;;29.84;100.00
12801;BME280;6464;42.494;27.470;2023-05-12T12:17:55;102553.16;;;31.14;100.00
12801;BME280;6464;42.494;27.470;2023-05-12T12:20:24;102535.41;;;30.85;100.00
12801;BME280;6464;42.494;27.470;2023-05-12T12:22:51;102553.78;;;30.94;100.00
12801;BME280;6464;42.494;27.470;2023-05-12T12:25:19;102545.78;;;31.28;100.00
12801;BME280;6464;42.494;27.470;2023-05-12T12:27:46;102512.81;;;29.85;100.00
12801;BME280;6464;42.494;27.470;2023-05-12T12:30:14;102531.38;;;30.04;100.00
12801;BME280;6464;42.494;27.470;2023-05-12T12:32:41;102541.47;;;31.83;100.00
12801;BME280;6464;42.494;27.470;2023-05-12T12:35:10;102544.50;;;31.67;100.00
12801;BME280;6464;42.494;27.470;2023-05-12T12:37:40;102564.91;;;31.85;100.00
12801;BME280;6464;42.494;27.470;2023-05-12T12:40:08;102507.09;;;29.37;100.00
12801;BME280;6464;42.494;27.470;2023-05-12T12:42:37;102504.81;;;30.57;100.00
12801;BME280;6464;42.494;27.470;2023-05-12T12:45:06;102562.88;;;31.65;100.00
12801;BME280;6464;42.494;27.470;2023-05-12T12:47:36;102542.06;;;32.20;100.00
12801;BME280;6464;42.494;27.470;2023-05-12T12:50:04;102531.72;;;30.86;100.00
12801;BME280;6464;42.494;27.470;2023-05-12T12:52:31;102487.63;;;29.18;100.00
12801;BME280;6464;42.494;27.470;2023-05-12T12:55:00;102438.34;;;27.16;100.00
12801;BME280;6464;42.494;27.470;2023-05-12T12:57:27;102410.69;;;26.51;100.00
12801;BME280;6464;42.494;27.470;2023-05-12T12:59:54;102407.28;;;25.51;100.00
12801;BME280;6464;42.494;27.470;2023-05-12T13:02:21;102346.00;;;25.35;100.00
12801;BME280;6464;42.494;27.470;2023-05-12T13:04:48;102396.19;;;26.20;100.00
12801;BME280;6464;42.494;27.470;2023-05-12T13:07:15;102376.06;;;25.78;100.00
12801;BME280;6464;42.494;27.470;2023-05-12T13:09:42;102353.59;;;25.29;100.00
12801;BME280;6464;42.494;27.470;2023-05-12T13:12:10;102380.16;;;26.17;100.00
12801;BME280;6464;42.494;27.470;2023-05-12T13:14:37;102387.16;;;26.67;100.00
12801;BME280;6464;42.494;27.470;2023-05-12T13:17:04;102361.84;;;25.26;100.00
12801;BME280;6464;42.494;27.470;2023-05-12T13:19:31;102337.28;;;25.30;100.00
12801;BME280;6464;42.494;27.470;2023-05-12T13:21:58;102340.13;;;26.08;100.00
12801;BME280;6464;42.494;27.470;2023-05-12T13:24:24;102368.22;;;27.26;100.00
12801;BME280;6464;42.494;27.470;2023-05-12T13:26:51;102406.56;;;29.12;100.00
12801;BME280;6464;42.494;27.470;2023-05-12T13:29:20;102436.44;;;29.37;100.00
12801;BME280;6464;42.494;27.470;2023-05-12T13:31:46;102404.56;;;28.49;100.00
12801;BME280;6464;42.494;27.470;2023-05-12T13:34:13;102399.91;;;29.29;100.00
12801;BME280;6464;42.494;27.470;2023-05-12T13:36:43;102429.69;;;29.05;100.00
12801;BME280;6464;42.494;27.470;2023-05-12T13:39:10;102459.06;;;29.89;100.00
12801;BME280;6464;42.494;27.470;2023-05-12T13:41:37;102447.94;;;29.54;100.00
12801;BME280;6464;42.494;27.470;2023-05-12T13:44:03;102422.66;;;28.75;100.00
12801;BME280;6464;42.494;27.470;2023-05-12T13:46:32;102433.19;;;29.07;100.00
12801;BME280;6464;42.494;27.470;2023-05-12T13:48:59;102416.22;;;28.76;100.00
12801;BME280;6464;42.494;27.470;2023-05-12T13:51:26;102426.16;;;28.77;100.00
12801;BME280;6464;42.494;27.470;2023-05-12T13:53:53;102403.09;;;28.16;100.00
12801;BME280;6464;42.494;27.470;2023-05-12T13:56:20;102397.38;;;27.06;100.00
12801;BME280;6464;42.494;27.470;2023-05-12T13:58:48;102359.16;;;25.91;100.00
12801;BME280;6464;42.494;27.470;2023-05-12T14:01:15;102308.66;;;25.44;100.00
12801;BME280;6464;42.494;27.470;2023-05-12T14:03:43;102268.56;;;25.36;100.00
12801;BME280;6464;42.494;27.470;2023-05-12T14:06:10;102390.19;;;26.47;100.00
12801;BME280;6464;42.494;27.470;2023-05-12T14:08:37;102407.28;;;26.77;100.00
12801;BME280;6464;42.494;27.470;2023-05-12T14:11:06;102335.28;;;25.01;100.00
12801;BME280;6464;42.494;27.470;2023-05-12T14:13:33;102367.31;;;25.73;100.00
12801;BME280;6464;42.494;27.470;2023-05-12T14:16:00;102407.72;;;26.85;100.00
12801;BME280;6464;42.494;27.470;2023-05-12T14:18:27;102329.00;;;26.28;100.00
12801;BME280;6464;42.494;27.470;2023-05-12T14:20:55;102341.59;;;26.13;100.00
12801;BME280;6464;42.494;27.470;2023-05-12T14:23:22;102390.56;;;25.77;100.00
12801;BME280;6464;42.494;27.470;2023-05-12T14:25:49;102415.03;;;26.83;100.00
12801;BME280;6464;42.494;27.470;2023-05-12T14:28:16;102380.94;;;26.19;100.00
12801;BME280;6464;42.494;27.470;2023-05-12T14:30:43;102373.97;;;25.83;100.00
12801;BME280;6464;42.494;27.470;2023-05-12T14:33:10;102295.91;;;24.97;100.00
12801;BME280;6464;42.494;27.470;2023-05-12T14:35:37;102274.28;;;24.64;100.00
12801;BME280;6464;42.494;27.470;2023-05-12T14:38:05;102371.13;;;25.03;100.00
12801;BME280;6464;42.494;27.470;2023-05-12T14:40:32;102257.03;;;23.79;100.00
12801;BME280;6464;42.494;27.470;2023-05-12T14:42:59;102210.72;;;23.71;100.00
12801;BME280;6464;42.494;27.470;2023-05-12T14:45:26;102198.22;;;23.51;100.00
12801;BME280;6464;42.494;27.470;2023-05-12T14:47:55;102280.31;;;23.98;100.00
12801;BME280;6464;42.494;27.470;2023-05-12T14:50:23;102304.22;;;24.05;100.00
12801;BME280;6464;42.494;27.470;2023-05-12T14:52:49;102334.72;;;24.06;100.00
12801;BME280;6464;42.494;27.470;2023-05-12T14:55:18;102285.81;;;23.58;100.00
12801;BME280;6464;42.494;27.470;2023-05-12T14:57:45;102268.94;;;22.78;100.00
12801;BME280;6464;42.494;27.470;2023-05-12T15:00:13;102193.75;;;21.51;100.00
12801;BME280;6464;42.494;27.470;2023-05-12T15:02:41;102265.50;;;21.91;100.00
12801;BME280;6464;42.494;27.470;2023-05-12T15:05:10;102227.81;;;22.15;100.00
12801;BME280;6464;42.494;27.470;2023-05-12T15:07:38;102305.13;;;22.91;100.00
12801;BME280;6464;42.494;27.470;2023-05-12T15:10:05;102216.09;;;21.73;100.00
12801;BME280;6464;42.494;27.470;2023-05-12T15:12:34;102246.56;;;22.37;100.00
12801;BME280;6464;42.494;27.470;2023-05-12T15:15:01;102229.59;;;21.72;100.00
12801;BME280;6464;42.494;27.470;2023-05-12T15:17:29;102228.31;;;21.37;100.00
12801;BME280;6464;42.494;27.470;2023-05-12T15:19:56;102199.25;;;20.29;100.00
12801;BME280;6464;42.494;27.470;2023-05-12T15:22:23;102189.84;;;20.42;100.00
12801;BME280;6464;42.494;27.470;2023-05-12T15:24:50;102267.69;;;21.13;100.00
12801;BME280;6464;42.494;27.470;2023-05-12T15:27:17;102134.50;;;20.41;100.00
12801;BME280;6464;42.494;27.470;2023-05-12T15:29:46;102248.44;;;21.25;100.00
12801;BME280;6464;42.494;27.470;2023-05-12T15:32:12;102204.41;;;21.07;100.00
12801;BME280;6464;42.494;27.470;2023-05-12T15:34:41;102295.38;;;21.60;100.00
12801;BME280;6464;42.494;27.470;2023-05-12T15:37:08;102248.84;;;20.91;100.00
12801;BME280;6464;42.494;27.470;2023-05-12T15:39:36;102245.97;;;20.47;100.00
12801;BME280;6464;42.494;27.470;2023-05-12T15:42:03;102196.88;;;19.39;100.00